This is the latest recevied weather packets stored in our database for station/object LZ1NAG-10. If no packets are shown the sender has not sent any weather packets the latest 1 day(s).
| Time | Temp. | Humidity | Pressure | Rain* | Wind** | Luminosity | Snow |
|---|---|---|---|---|---|---|---|
| 1777802540 | 10.56° C | 52% | 1025.5 hPa | - | - | - | - |
| 1777801640 | 10.56° C | 53% | 1024.9 hPa | - | - | - | - |
| 1777800739 | 15.56° C | 48% | 1024.6 hPa | - | - | - | - |
| 1777799839 | 15.56° C | 48% | 1025.4 hPa | - | - | - | - |
| 1777798939 | 11.67° C | 51% | 1024.9 hPa | - | - | - | - |
| 1777798039 | 18.33° C | 46% | 1025 hPa | - | - | - | - |
| 1777797142 | 18.33° C | 46% | 1025 hPa | - | - | - | - |
| 1777796242 | 18.33° C | 45% | 1025.4 hPa | - | - | - | - |
| 1777795338 | 15.56° C | 46% | 1024.9 hPa | - | - | - | - |
| 1777794441 | 15° C | 45% | 1025.6 hPa | - | - | - | - |
| 1777793537 | 5.56° C | 52% | 1025.4 hPa | - | - | - | - |
| 1777792637 | 4.44° C | 53% | 1025.5 hPa | - | - | - | - |
| 1777791737 | 3.89° C | 53% | 1025.2 hPa | - | - | - | - |
| 1777790837 | 4.44° C | 53% | 1025.2 hPa | - | - | - | - |
| 1777789937 | 3.89° C | 53% | 1025.1 hPa | - | - | - | - |
| 1777789036 | 3.89° C | 53% | 1025.2 hPa | - | - | - | - |
| 1777788136 | 4.44° C | 53% | 1025 hPa | - | - | - | - |
| 1777787236 | 5° C | 52% | 1024.8 hPa | - | - | - | - |
| 1777786336 | 3.89° C | 53% | 1025 hPa | - | - | - | - |
| 1777785439 | 3.89° C | 53% | 1024.8 hPa | - | - | - | - |
| 1777784536 | 4.44° C | 53% | 1024.7 hPa | - | - | - | - |
| 1777783639 | 3.89° C | 53% | 1024.6 hPa | - | - | - | - |
| 1777782738 | 2.78° C | 53% | 1024.4 hPa | - | - | - | - |
| 1777780941 | 2.78° C | 54% | 1024.3 hPa | - | - | - | - |
| 1777780037 | 1.67° C | 54% | 1024.2 hPa | - | - | - | - |
* Rain since midnight (hover to see other rain measurements)
** Current wind speed in m/s (hover to see current wind gust speed)